createdAt,value
2017-07-28T00:00:29.371Z,100.00
2017-07-28T00:01:29.333Z,100.00
2017-07-28T00:02:29.290Z,100.00
2017-07-28T00:03:29.413Z,100.00
2017-07-28T00:04:29.327Z,100.00
2017-07-28T00:05:29.364Z,100.00
2017-07-28T00:06:29.304Z,100.00
2017-07-28T00:07:29.151Z,100.00
2017-07-28T00:08:29.180Z,100.00
2017-07-28T00:09:29.204Z,100.00
2017-07-28T00:10:29.238Z,100.00
2017-07-28T00:11:29.175Z,100.00
2017-07-28T00:12:29.181Z,100.00
2017-07-28T00:13:29.137Z,100.00
2017-07-28T00:14:29.162Z,100.00
2017-07-28T00:15:29.404Z,100.00
2017-07-28T00:16:29.326Z,100.00
2017-07-28T00:17:29.377Z,100.00
2017-07-28T00:18:29.410Z,100.00
2017-07-28T00:19:29.443Z,100.00
2017-07-28T00:20:29.406Z,100.00
2017-07-28T00:21:29.433Z,100.00
2017-07-28T00:22:29.364Z,100.00
2017-07-28T00:23:29.393Z,100.00
2017-07-28T00:24:29.467Z,100.00
2017-07-28T00:25:29.195Z,100.00
2017-07-28T00:26:29.215Z,100.00
2017-07-28T00:27:29.154Z,100.00
2017-07-28T00:28:29.281Z,100.00
2017-07-28T00:29:29.208Z,100.00
2017-07-28T00:30:29.191Z,100.00
2017-07-28T00:31:29.215Z,100.00
2017-07-28T00:32:29.445Z,100.00
2017-07-28T00:33:29.468Z,100.00
2017-07-28T00:34:29.592Z,100.00
2017-07-28T00:35:29.422Z,100.00
2017-07-28T00:36:29.458Z,100.00
2017-07-28T00:37:29.478Z,100.00
2017-07-28T00:38:29.509Z,100.00
2017-07-28T00:39:29.531Z,100.00
2017-07-28T00:40:29.558Z,100.00
2017-07-28T00:41:29.290Z,100.00
2017-07-28T00:42:29.325Z,100.00
2017-07-28T00:43:29.286Z,100.00
2017-07-28T00:44:29.308Z,100.00
2017-07-28T00:45:29.230Z,100.00
2017-07-28T00:46:29.253Z,100.00
2017-07-28T00:47:29.283Z,100.00
2017-07-28T00:48:29.318Z,100.00
2017-07-28T00:49:29.248Z,100.00
2017-07-28T00:50:29.482Z,100.00
2017-07-28T00:51:29.447Z,100.00
2017-07-28T00:52:29.763Z,100.00
2017-07-28T00:53:29.483Z,100.00
2017-07-28T00:54:29.529Z,100.00
2017-07-28T00:55:29.448Z,100.00
2017-07-28T00:56:29.471Z,100.00
2017-07-28T00:57:29.300Z,100.00
2017-07-28T00:58:29.323Z,100.00
2017-07-28T00:59:29.349Z,100.00
2017-07-28T01:02:31.026Z,100.00
2017-07-28T01:02:31.835Z,100.00
2017-07-28T01:02:32.544Z,100.00
2017-07-28T01:05:50.575Z,100.00
2017-07-28T01:05:51.508Z,100.00
2017-07-28T01:05:52.212Z,100.00
2017-07-28T01:08:32.930Z,100.00
2017-07-28T01:08:33.740Z,100.00
2017-07-28T01:08:34.349Z,100.00
2017-07-28T01:11:52.733Z,100.00
2017-07-28T01:11:53.644Z,100.00
2017-07-28T01:11:54.249Z,100.00
2017-07-28T01:14:31.941Z,100.00
2017-07-28T01:14:32.952Z,100.00
2017-07-28T01:14:33.561Z,100.00
2017-07-28T01:17:54.718Z,100.00
2017-07-28T01:17:55.746Z,100.00
2017-07-28T01:17:56.355Z,100.00
2017-07-28T01:21:04.033Z,100.00
2017-07-28T01:21:05.043Z,100.00
2017-07-28T01:21:05.649Z,100.00
2017-07-28T01:23:55.705Z,100.00
2017-07-28T01:23:56.516Z,100.00
2017-07-28T01:23:57.120Z,100.00
2017-07-28T01:26:30.951Z,100.00
2017-07-28T01:26:31.564Z,100.00
2017-07-28T01:26:32.267Z,100.00
2017-07-28T01:29:42.660Z,100.00
2017-07-28T01:29:43.676Z,100.00
2017-07-28T01:29:44.285Z,100.00
2017-07-28T01:32:29.917Z,100.00
2017-07-28T01:32:30.728Z,100.00
2017-07-28T01:32:31.334Z,100.00
2017-07-28T01:38:07.715Z,100.00
2017-07-28T01:38:08.323Z,100.00
2017-07-28T01:38:09.036Z,100.00
2017-07-28T01:38:09.649Z,100.00
2017-07-28T01:38:10.250Z,100.00
2017-07-28T01:38:29.396Z,100.00
2017-07-28T01:45:04.860Z,100.00
2017-07-28T01:45:05.771Z,100.00
2017-07-28T01:45:06.588Z,100.00
2017-07-28T01:45:07.821Z,100.00
2017-07-28T01:45:09.081Z,100.00
2017-07-28T01:45:10.325Z,100.00
2017-07-28T01:47:45.536Z,100.00
2017-07-28T01:47:46.647Z,100.00
2017-07-28T01:47:47.254Z,100.00
2017-07-28T01:50:32.933Z,100.00
2017-07-28T01:50:33.944Z,100.00
2017-07-28T01:50:34.550Z,100.00
2017-07-28T01:53:50.658Z,100.00
2017-07-28T01:53:51.270Z,100.00
2017-07-28T01:53:51.879Z,100.00
2017-07-28T01:56:32.016Z,100.00
2017-07-28T01:56:33.128Z,100.00
2017-07-28T01:56:33.842Z,100.00
2017-07-28T01:59:53.631Z,100.00
2017-07-28T01:59:54.638Z,100.00
2017-07-28T01:59:55.347Z,100.00
2017-07-28T02:00:29.452Z,100.00
2017-07-28T02:01:29.670Z,100.00
2017-07-28T02:02:29.701Z,100.00
2017-07-28T02:03:29.726Z,100.00
2017-07-28T02:04:29.649Z,100.00
2017-07-28T02:05:29.482Z,100.00
2017-07-28T02:06:29.513Z,100.00
2017-07-28T02:07:29.489Z,100.00
2017-07-28T02:08:29.513Z,100.00
2017-07-28T02:09:29.566Z,100.00
2017-07-28T02:10:29.490Z,100.00
2017-07-28T02:11:29.514Z,100.00
2017-07-28T02:12:29.535Z,100.00
2017-07-28T02:13:29.876Z,100.00
2017-07-28T02:14:29.719Z,100.00
2017-07-28T02:15:29.740Z,100.00
2017-07-28T02:16:29.771Z,100.00
2017-07-28T02:17:29.798Z,100.00
2017-07-28T02:18:29.810Z,100.00
2017-07-28T02:19:29.856Z,100.00
2017-07-28T02:20:29.783Z,100.00
2017-07-28T02:21:29.834Z,100.00
2017-07-28T02:22:29.784Z,100.00
2017-07-28T02:23:29.503Z,100.00
2017-07-28T02:24:29.534Z,100.00
2017-07-28T02:25:29.562Z,100.00
2017-07-28T02:26:29.581Z,100.00
2017-07-28T02:27:29.606Z,100.00
2017-07-28T02:28:29.538Z,100.00
2017-07-28T02:29:29.594Z,100.00
2017-07-28T02:30:29.516Z,100.00
2017-07-28T02:31:29.848Z,100.00
2017-07-28T02:32:29.801Z,100.00
2017-07-28T02:33:29.830Z,100.00
2017-07-28T02:34:29.773Z,100.00
2017-07-28T02:35:29.813Z,100.00
2017-07-28T02:36:29.874Z,100.00
2017-07-28T02:37:29.784Z,100.00
2017-07-28T02:38:29.818Z,100.00
2017-07-28T02:39:29.564Z,100.00
2017-07-28T02:40:29.599Z,100.00
2017-07-28T02:41:29.632Z,100.00
2017-07-28T02:42:29.662Z,100.00
2017-07-28T02:43:29.627Z,100.00
2017-07-28T02:44:29.639Z,100.00
2017-07-28T02:45:29.590Z,100.00
2017-07-28T02:46:29.624Z,100.00
2017-07-28T02:47:29.849Z,100.00
2017-07-28T02:48:29.797Z,100.00
2017-07-28T02:49:29.821Z,100.00
2017-07-28T02:50:29.959Z,100.00
2017-07-28T02:51:29.882Z,100.00
2017-07-28T02:52:29.909Z,100.00
2017-07-28T02:53:29.834Z,100.00
2017-07-28T02:54:29.963Z,100.00
2017-07-28T02:55:29.891Z,100.00
2017-07-28T02:56:29.628Z,100.00
2017-07-28T02:57:29.655Z,100.00
2017-07-28T02:58:29.707Z,100.00
2017-07-28T02:59:29.648Z,100.00
2017-07-28T03:00:29.680Z,100.00
2017-07-28T03:01:29.701Z,100.00
2017-07-28T03:02:29.732Z,100.00
2017-07-28T03:05:17.762Z,100.00
2017-07-28T03:05:18.669Z,100.00
2017-07-28T03:05:29.695Z,100.00
2017-07-28T03:06:29.924Z,100.00
2017-07-28T03:07:29.950Z,100.00
2017-07-28T03:08:29.874Z,100.00
2017-07-28T03:09:29.898Z,100.00
2017-07-28T03:10:29.941Z,100.00
2017-07-28T03:11:29.961Z,100.00
2017-07-28T03:12:29.885Z,100.00
2017-07-28T03:13:29.708Z,100.00
2017-07-28T03:14:29.732Z,100.00
2017-07-28T03:15:29.784Z,100.00
2017-07-28T03:16:29.714Z,100.00
2017-07-28T03:17:29.744Z,100.00
2017-07-28T03:18:29.660Z,100.00
2017-07-28T03:19:29.699Z,100.00
2017-07-28T03:20:29.723Z,100.00
2017-07-28T03:21:29.863Z,100.00
2017-07-28T03:22:29.891Z,100.00
2017-07-28T03:23:29.938Z,100.00
2017-07-28T03:24:29.968Z,100.00
2017-07-28T03:25:29.918Z,100.00
2017-07-28T03:26:29.948Z,100.00
2017-07-28T03:27:29.976Z,100.00
2017-07-28T03:28:30.103Z,100.00
2017-07-28T03:29:29.937Z,100.00
2017-07-28T03:30:29.753Z,100.00
2017-07-28T03:31:29.780Z,100.00
2017-07-28T03:32:29.801Z,100.00
2017-07-28T03:33:29.728Z,100.00
2017-07-28T03:34:29.746Z,100.00
2017-07-28T03:35:29.784Z,100.00
2017-07-28T03:36:29.795Z,100.00
2017-07-28T03:37:29.731Z,100.00
2017-07-28T03:38:29.755Z,100.00
2017-07-28T03:39:29.988Z,100.00
2017-07-28T03:40:29.934Z,100.00
2017-07-28T03:41:29.961Z,100.00
2017-07-28T03:42:30.039Z,100.00
2017-07-28T03:43:29.931Z,100.00
2017-07-28T03:44:29.979Z,100.00
2017-07-28T03:45:30.009Z,100.00
2017-07-28T03:46:29.745Z,100.00
2017-07-28T03:47:29.775Z,100.00
2017-07-28T03:48:29.797Z,100.00
2017-07-28T03:49:29.735Z,100.00
2017-07-28T03:50:29.773Z,100.00
2017-07-28T03:51:29.807Z,100.00
2017-07-28T03:52:29.830Z,100.00
2017-07-28T03:53:29.800Z,100.00
2017-07-28T03:54:29.873Z,100.00
2017-07-28T03:55:29.808Z,100.00
2017-07-28T03:56:30.028Z,100.00
2017-07-28T03:57:30.154Z,100.00
2017-07-28T03:58:30.020Z,100.00
2017-07-28T03:59:29.962Z,100.00
2017-07-28T04:00:30.000Z,100.00
2017-07-28T04:01:29.976Z,100.00
2017-07-28T04:02:30.011Z,100.00
2017-07-28T04:03:30.045Z,100.00
2017-07-28T04:04:29.810Z,100.00
2017-07-28T04:05:29.834Z,100.00
2017-07-28T04:06:29.874Z,100.00
2017-07-28T04:07:29.891Z,100.00
2017-07-28T04:08:29.826Z,100.00
2017-07-28T04:09:29.865Z,100.00
2017-07-28T04:10:29.894Z,100.00
2017-07-28T04:11:29.838Z,100.00
2017-07-28T04:12:29.896Z,100.00
2017-07-28T04:13:29.825Z,100.00
2017-07-28T04:14:30.057Z,100.00
2017-07-28T04:15:30.087Z,100.00
2017-07-28T04:16:30.116Z,100.00
2017-07-28T04:17:30.157Z,100.00
2017-07-28T04:18:30.090Z,100.00
2017-07-28T04:19:29.819Z,100.00
2017-07-28T04:20:29.856Z,100.00
2017-07-28T04:21:29.893Z,100.00
2017-07-28T04:22:29.922Z,100.00
2017-07-28T04:23:29.858Z,100.00
2017-07-28T04:24:29.852Z,100.00
2017-07-28T04:25:29.873Z,100.00
2017-07-28T04:26:29.916Z,100.00
2017-07-28T04:27:29.961Z,100.00
2017-07-28T04:28:29.991Z,100.00
2017-07-28T04:29:29.942Z,100.00
2017-07-28T04:30:30.054Z,100.00
2017-07-28T04:31:29.887Z,100.00
2017-07-28T04:32:30.122Z,100.00
2017-07-28T04:33:30.112Z,100.00
2017-07-28T04:34:30.103Z,100.00
2017-07-28T04:35:30.171Z,100.00
2017-07-28T04:36:30.151Z,100.00
2017-07-28T04:37:30.149Z,100.00
2017-07-28T04:38:29.960Z,100.00
2017-07-28T04:39:29.945Z,100.00
2017-07-28T04:40:30.015Z,100.00
2017-07-28T04:41:29.970Z,100.00
2017-07-28T04:42:30.018Z,100.00
2017-07-28T04:43:29.996Z,100.00
2017-07-28T04:44:29.979Z,100.00
2017-07-28T04:45:29.952Z,100.00
2017-07-28T04:46:30.210Z,100.00
2017-07-28T04:47:30.225Z,100.00
2017-07-28T04:48:30.159Z,100.00
2017-07-28T04:49:30.195Z,100.00
2017-07-28T04:50:30.208Z,100.00
2017-07-28T04:51:30.220Z,100.00
2017-07-28T04:52:30.308Z,100.00
2017-07-28T04:53:30.239Z,100.00
2017-07-28T04:54:30.216Z,100.00
2017-07-28T04:55:29.991Z,100.00
2017-07-28T04:56:30.030Z,100.00
2017-07-28T04:57:29.963Z,100.00
2017-07-28T04:58:30.062Z,100.00
2017-07-28T04:59:29.975Z,100.00
2017-07-28T05:00:30.026Z,100.00
2017-07-28T05:01:30.033Z,100.00
2017-07-28T05:02:30.081Z,100.00
2017-07-28T05:03:30.344Z,100.00
2017-07-28T05:04:30.227Z,100.00
2017-07-28T05:05:30.292Z,100.00
2017-07-28T05:06:30.263Z,100.00
2017-07-28T05:07:30.231Z,100.00
2017-07-28T05:08:30.218Z,100.00
2017-07-28T05:09:30.191Z,100.00
2017-07-28T05:10:29.969Z,100.00
2017-07-28T05:11:30.027Z,100.00
2017-07-28T05:12:30.030Z,100.00
2017-07-28T05:13:30.072Z,100.00
2017-07-28T05:14:30.063Z,100.00
2017-07-28T05:15:30.041Z,100.00
2017-07-28T05:16:30.020Z,100.00
2017-07-28T05:17:30.079Z,100.00
2017-07-28T05:18:30.059Z,100.00
2017-07-28T05:19:30.026Z,100.00
2017-07-28T05:20:30.377Z,100.00
2017-07-28T05:21:30.286Z,100.00
2017-07-28T05:22:30.408Z,100.00
2017-07-28T05:23:30.309Z,100.00
2017-07-28T05:24:30.269Z,100.00
2017-07-28T05:25:30.380Z,100.00
2017-07-28T05:26:30.258Z,100.00
2017-07-28T05:27:30.332Z,100.00
2017-07-28T05:28:30.023Z,100.00
2017-07-28T05:29:30.051Z,100.00
2017-07-28T05:30:30.143Z,100.00
2017-07-28T05:31:30.118Z,100.00
2017-07-28T05:32:30.096Z,100.00
2017-07-28T05:33:30.065Z,100.00
2017-07-28T05:34:30.096Z,100.00
2017-07-28T05:35:30.101Z,100.00
2017-07-28T05:36:30.257Z,100.00
2017-07-28T05:37:30.391Z,100.00
2017-07-28T05:38:30.319Z,100.00
2017-07-28T05:39:30.360Z,100.00
2017-07-28T05:40:30.292Z,100.00
2017-07-28T05:41:30.359Z,100.00
2017-07-28T05:42:30.409Z,100.00
2017-07-28T05:43:30.271Z,100.00
2017-07-28T05:44:30.339Z,100.00
2017-07-28T05:45:30.101Z,100.00
2017-07-28T05:46:30.157Z,100.00
2017-07-28T05:47:30.128Z,100.00
2017-07-28T05:48:30.115Z,100.00
2017-07-28T05:49:30.167Z,100.00
2017-07-28T05:50:30.128Z,100.00
2017-07-28T05:51:30.096Z,100.00
2017-07-28T05:52:30.155Z,100.00
2017-07-28T05:53:30.307Z,100.00
2017-07-28T05:54:30.343Z,100.00
2017-07-28T05:55:30.310Z,100.00
2017-07-28T05:56:30.403Z,100.00
2017-07-28T05:57:30.426Z,100.00
2017-07-28T05:58:30.322Z,100.00
2017-07-28T05:59:30.418Z,100.00
2017-07-28T06:00:30.112Z,100.00
2017-07-28T06:01:30.398Z,100.00
2017-07-28T06:02:30.177Z,100.00
2017-07-28T06:03:30.162Z,100.00
2017-07-28T06:04:30.182Z,100.00
2017-07-28T06:05:30.193Z,100.00
2017-07-28T06:06:30.178Z,100.00
2017-07-28T06:07:30.253Z,99.71
2017-07-28T06:08:30.181Z,98.75
2017-07-28T06:09:30.340Z,97.50
2017-07-28T06:10:30.401Z,97.94
2017-07-28T06:11:30.549Z,98.15
2017-07-28T06:12:30.403Z,97.57
2017-07-28T06:13:30.357Z,96.98
2017-07-28T06:14:30.413Z,96.94
2017-07-28T06:15:30.403Z,96.07
2017-07-28T06:16:30.428Z,95.02
2017-07-28T06:17:30.493Z,95.42
2017-07-28T06:18:30.447Z,94.75
2017-07-28T06:19:30.239Z,94.94
2017-07-28T06:20:30.195Z,94.17
2017-07-28T06:21:30.247Z,94.92
2017-07-28T06:22:30.226Z,94.86
2017-07-28T06:23:30.328Z,94.06
2017-07-28T06:24:30.219Z,95.66
2017-07-28T06:25:30.199Z,94.37
2017-07-28T06:26:30.264Z,94.78
2017-07-28T06:27:30.240Z,95.58
2017-07-28T06:28:30.512Z,95.07
2017-07-28T06:29:30.582Z,93.47
2017-07-28T06:30:30.437Z,94.31
2017-07-28T06:31:30.503Z,93.38
2017-07-28T06:32:30.638Z,94.19
2017-07-28T06:33:30.436Z,92.75
2017-07-28T06:34:30.442Z,92.65
2017-07-28T06:35:30.230Z,92.85
2017-07-28T06:36:30.260Z,91.08
2017-07-28T06:37:30.263Z,89.54
2017-07-28T06:38:30.289Z,89.96
2017-07-28T06:39:30.320Z,93.12
2017-07-28T06:40:31.262Z,91.19
2017-07-28T06:41:30.354Z,91.35
2017-07-28T06:42:31.328Z,90.58
2017-07-28T06:43:30.683Z,90.46
2017-07-28T06:44:30.491Z,91.25
2017-07-28T06:45:30.481Z,90.29
2017-07-28T06:46:30.857Z,92.14
2017-07-28T06:47:30.944Z,91.54
2017-07-28T06:48:30.502Z,89.59
2017-07-28T06:49:30.833Z,89.69
2017-07-28T06:50:30.896Z,90.02
2017-07-28T06:51:30.682Z,90.50
2017-07-28T06:52:30.790Z,91.03
2017-07-28T06:53:30.350Z,91.23
2017-07-28T06:54:31.060Z,87.06
2017-07-28T06:55:30.903Z,85.83
2017-07-28T06:56:30.342Z,86.43
2017-07-28T06:57:30.362Z,86.69
2017-07-28T06:58:30.346Z,88.16
2017-07-28T06:59:30.370Z,86.33
2017-07-28T07:00:30.482Z,85.09
2017-07-28T07:01:30.410Z,85.31
2017-07-28T07:02:30.656Z,86.69
2017-07-28T07:03:30.540Z,85.59
2017-07-28T07:04:30.634Z,84.14
2017-07-28T07:05:30.649Z,82.99
2017-07-28T07:06:30.697Z,84.25
2017-07-28T07:07:30.569Z,81.41
2017-07-28T07:08:30.647Z,81.38
2017-07-28T07:09:30.334Z,83.59
2017-07-28T07:10:30.353Z,80.70
2017-07-28T07:11:30.366Z,82.32
2017-07-28T07:12:30.380Z,83.21
2017-07-28T07:13:30.409Z,81.68
2017-07-28T07:14:30.336Z,83.97
2017-07-28T07:15:30.532Z,84.29
2017-07-28T07:16:30.437Z,80.54
2017-07-28T07:17:30.395Z,80.38
2017-07-28T07:18:30.594Z,80.11
2017-07-28T07:19:30.540Z,80.13
2017-07-28T07:20:30.601Z,80.81
2017-07-28T07:21:30.847Z,81.19
2017-07-28T07:22:30.585Z,82.06
2017-07-28T07:23:30.617Z,82.69
2017-07-28T07:24:30.584Z,76.08
2017-07-28T07:25:30.615Z,77.83
2017-07-28T07:26:30.801Z,78.47
2017-07-28T07:27:30.389Z,78.40
2017-07-28T07:28:30.418Z,81.91
2017-07-28T07:29:30.403Z,77.45
2017-07-28T07:30:30.492Z,82.08
2017-07-28T07:31:30.483Z,78.94
2017-07-28T07:32:30.467Z,77.32
2017-07-28T07:33:30.575Z,79.88
2017-07-28T07:34:30.480Z,79.72
2017-07-28T07:35:30.514Z,78.62
2017-07-28T07:36:30.779Z,75.20
2017-07-28T07:37:30.699Z,77.08
2017-07-28T07:38:30.648Z,74.29
2017-07-28T07:39:30.737Z,78.06
2017-07-28T07:40:30.772Z,78.61
2017-07-28T07:41:30.802Z,76.21
2017-07-28T07:42:30.652Z,77.66
2017-07-28T07:43:30.692Z,78.86
2017-07-28T07:44:30.434Z,74.76
2017-07-28T07:45:30.537Z,71.42
2017-07-28T07:46:30.422Z,75.13
2017-07-28T07:47:30.501Z,73.66
2017-07-28T07:48:30.526Z,75.17
2017-07-28T07:49:30.508Z,77.26
2017-07-28T07:50:31.101Z,71.98
2017-07-28T07:51:30.586Z,73.96
2017-07-28T07:52:30.664Z,71.53
2017-07-28T07:53:30.572Z,76.28
2017-07-28T07:54:30.948Z,71.76
2017-07-28T07:55:30.719Z,74.52
2017-07-28T07:56:30.834Z,71.60
2017-07-28T07:57:30.708Z,74.08
2017-07-28T07:58:30.914Z,73.75
2017-07-28T07:59:30.778Z,71.81
2017-07-28T08:00:30.791Z,71.81
2017-07-28T08:01:30.573Z,75.87
2017-07-28T08:02:30.564Z,74.33
2017-07-28T08:03:30.555Z,72.34
2017-07-28T08:04:30.547Z,73.04
2017-07-28T08:05:30.529Z,69.95
2017-07-28T08:06:30.545Z,70.87
2017-07-28T08:07:30.528Z,68.81
2017-07-28T08:08:30.905Z,68.91
2017-07-28T08:09:30.544Z,68.76
2017-07-28T08:10:30.741Z,73.66
2017-07-28T08:11:30.752Z,74.70
2017-07-28T08:12:30.907Z,74.46
2017-07-28T08:13:30.712Z,70.98
2017-07-28T08:14:30.866Z,71.58
2017-07-28T08:15:30.742Z,76.18
2017-07-28T08:16:30.816Z,75.06
2017-07-28T08:17:30.558Z,77.04
2017-07-28T08:18:30.621Z,77.36
2017-07-28T08:19:30.611Z,76.58
2017-07-28T08:20:30.556Z,79.06
2017-07-28T08:21:30.562Z,78.70
2017-07-28T08:22:30.551Z,73.18
2017-07-28T08:23:30.574Z,72.57
2017-07-28T08:24:30.612Z,73.75
2017-07-28T08:25:30.539Z,75.28
2017-07-28T08:26:30.855Z,75.50
2017-07-28T08:27:30.871Z,76.44
2017-07-28T08:28:30.882Z,77.87
2017-07-28T08:29:30.810Z,74.81
2017-07-28T08:30:30.933Z,75.60
2017-07-28T08:31:30.836Z,77.67
2017-07-28T08:32:30.833Z,79.94
2017-07-28T08:33:30.965Z,80.36
2017-07-28T08:34:30.928Z,81.09
2017-07-28T08:35:30.615Z,80.48
2017-07-28T08:36:30.609Z,82.36
2017-07-28T08:37:30.612Z,81.62
2017-07-28T08:38:30.716Z,80.40
2017-07-28T08:39:30.776Z,83.06
2017-07-28T08:40:30.693Z,86.23
2017-07-28T08:41:30.668Z,84.68
2017-07-28T08:42:30.887Z,83.07
2017-07-28T08:43:30.974Z,83.70
2017-07-28T08:44:30.858Z,84.64
2017-07-28T08:45:30.892Z,84.91
2017-07-28T08:46:30.872Z,81.30
2017-07-28T08:47:30.946Z,83.93
2017-07-28T08:48:30.935Z,83.74
2017-07-28T08:49:30.828Z,82.15
2017-07-28T08:50:31.028Z,83.85
2017-07-28T08:51:30.646Z,83.72
2017-07-28T08:52:30.683Z,84.10
2017-07-28T08:53:30.688Z,86.77
2017-07-28T08:54:30.655Z,85.90
2017-07-28T08:55:30.670Z,83.41
2017-07-28T08:56:30.740Z,80.92
2017-07-28T08:57:30.665Z,80.18
2017-07-28T08:58:30.755Z,79.11
2017-07-28T08:59:30.892Z,81.10
2017-07-28T09:00:30.922Z,82.34
2017-07-28T09:01:30.948Z,80.35
2017-07-28T09:02:30.970Z,78.48
2017-07-28T09:03:30.911Z,75.47
2017-07-28T09:04:30.869Z,74.69
2017-07-28T09:05:31.009Z,74.34
2017-07-28T09:06:30.977Z,76.81
2017-07-28T09:07:30.741Z,75.40
2017-07-28T09:08:30.705Z,70.98
2017-07-28T09:09:30.768Z,69.07
2017-07-28T09:10:30.719Z,67.94
2017-07-28T09:11:30.799Z,65.49
2017-07-28T09:12:30.829Z,64.10
2017-07-28T09:13:30.678Z,65.27
2017-07-28T09:14:30.961Z,65.55
2017-07-28T09:15:30.899Z,62.51
2017-07-28T09:16:30.932Z,64.57
2017-07-28T09:17:31.049Z,62.50
2017-07-28T09:18:31.001Z,60.19
2017-07-28T09:19:31.037Z,61.57
2017-07-28T09:20:31.081Z,58.51
2017-07-28T09:21:30.984Z,56.51
2017-07-28T09:22:30.992Z,56.11
2017-07-28T09:23:31.008Z,55.72
2017-07-28T09:24:30.756Z,56.46
2017-07-28T09:25:30.818Z,58.96
2017-07-28T09:26:30.761Z,59.84
2017-07-28T09:27:30.811Z,56.28
2017-07-28T09:28:30.760Z,57.18
2017-07-28T09:29:30.764Z,60.12
2017-07-28T09:30:30.782Z,58.45
2017-07-28T09:31:30.783Z,56.12
2017-07-28T09:32:30.800Z,57.35
2017-07-28T09:33:31.002Z,57.83
2017-07-28T09:34:31.017Z,54.01
2017-07-28T09:35:31.004Z,59.64
2017-07-28T09:36:31.026Z,57.09
2017-07-28T09:37:31.117Z,58.12
2017-07-28T09:38:31.020Z,57.30
2017-07-28T09:39:31.102Z,58.49
2017-07-28T09:40:31.040Z,57.65
2017-07-28T09:41:30.824Z,57.59
2017-07-28T09:42:31.281Z,59.64
2017-07-28T09:43:30.840Z,63.12
2017-07-28T09:44:30.773Z,59.38
2017-07-28T09:45:30.839Z,61.66
2017-07-28T09:46:30.859Z,61.65
2017-07-28T09:47:30.900Z,64.63
2017-07-28T09:48:30.860Z,64.55
2017-07-28T09:49:30.804Z,61.19
2017-07-28T09:50:31.105Z,62.68
2017-07-28T09:51:31.134Z,58.39
2017-07-28T09:52:31.157Z,59.37
2017-07-28T09:53:31.398Z,60.72
2017-07-28T09:54:31.025Z,53.45
2017-07-28T09:55:31.077Z,53.38
2017-07-28T10:17:16.751Z,51.81
2017-07-28T10:17:30.706Z,51.09
2017-07-28T10:18:30.974Z,53.95
2017-07-28T10:19:30.708Z,51.25
2017-07-28T10:20:30.743Z,53.17
2017-07-28T10:21:30.657Z,51.31
2017-07-28T10:22:30.890Z,51.92
2017-07-28T10:23:31.221Z,50.65
2017-07-28T10:24:30.638Z,49.33
2017-07-28T10:25:31.000Z,49.25
2017-07-28T10:26:31.001Z,50.27
2017-07-28T10:27:31.085Z,48.32
2017-07-28T10:28:30.994Z,51.04
2017-07-28T10:29:30.939Z,55.58
2017-07-28T10:30:31.024Z,50.70
2017-07-28T10:31:31.018Z,53.70
2017-07-28T10:32:30.651Z,53.80
2017-07-28T10:33:30.735Z,49.73
2017-07-28T10:34:30.647Z,48.09
2017-07-28T10:35:30.664Z,50.69
2017-07-28T10:36:30.697Z,47.12
2017-07-28T10:37:30.721Z,51.74
2017-07-28T10:38:30.715Z,48.63
2017-07-28T10:39:30.747Z,50.20
2017-07-28T10:40:30.784Z,52.17
2017-07-28T10:41:30.764Z,52.68
2017-07-28T10:42:31.033Z,55.15
2017-07-28T10:43:30.911Z,53.06
2017-07-28T10:44:30.907Z,57.00
2017-07-28T10:45:30.917Z,56.20
2017-07-28T10:46:30.922Z,53.91
2017-07-28T10:47:31.013Z,58.24
2017-07-28T10:48:31.123Z,55.45
2017-07-28T10:49:30.712Z,58.24
2017-07-28T10:50:30.802Z,56.73
2017-07-28T10:51:30.774Z,57.52
2017-07-28T10:52:30.854Z,60.92
2017-07-28T10:53:30.797Z,57.36
2017-07-28T10:54:30.774Z,54.96
2017-07-28T10:55:30.849Z,58.45
2017-07-28T10:56:30.741Z,53.29
2017-07-28T10:57:30.964Z,55.95
2017-07-28T10:58:31.025Z,55.60
2017-07-28T10:59:31.073Z,50.38
2017-07-28T11:00:31.069Z,48.81
2017-07-28T11:01:31.240Z,52.22
2017-07-28T11:02:30.996Z,52.99
2017-07-28T11:03:31.104Z,47.07
2017-07-28T11:04:31.030Z,46.59
2017-07-28T11:05:31.082Z,46.04
2017-07-28T11:06:31.045Z,45.54
2017-07-28T11:07:30.840Z,46.92
2017-07-28T11:08:30.777Z,45.72
2017-07-28T11:09:30.844Z,47.10
2017-07-28T11:10:30.796Z,44.73
2017-07-28T11:11:30.778Z,42.89
2017-07-28T11:12:30.964Z,47.38
2017-07-28T11:13:30.824Z,44.25
2017-07-28T11:14:30.782Z,51.63
2017-07-28T11:15:31.147Z,46.21
2017-07-28T11:16:31.004Z,50.96
2017-07-28T11:17:31.071Z,55.63
2017-07-28T11:18:31.037Z,52.06
2017-07-28T11:19:30.998Z,53.16
2017-07-28T11:20:31.145Z,52.00
2017-07-28T11:21:31.010Z,51.10
2017-07-28T11:22:31.059Z,53.54
2017-07-28T11:23:30.844Z,55.26
2017-07-28T11:24:30.864Z,53.70
2017-07-28T11:25:30.816Z,54.98
2017-07-28T11:26:30.880Z,55.42
2017-07-28T11:27:30.943Z,51.54
2017-07-28T11:28:30.805Z,52.12
2017-07-28T11:29:31.061Z,54.79
2017-07-28T11:30:31.108Z,53.99
2017-07-28T11:31:31.034Z,54.58
2017-07-28T11:32:31.080Z,51.70
2017-07-28T11:33:31.029Z,56.69
2017-07-28T11:34:31.075Z,55.96
2017-07-28T11:35:31.123Z,51.39
2017-07-28T11:36:31.082Z,49.77
2017-07-28T11:37:31.194Z,48.16
2017-07-28T11:38:31.118Z,45.62
2017-07-28T11:39:30.867Z,47.92
2017-07-28T11:40:30.874Z,46.97
2017-07-28T11:41:30.881Z,49.56
2017-07-28T11:42:30.940Z,51.36
2017-07-28T11:43:30.900Z,48.26
2017-07-28T11:44:30.929Z,47.93
2017-07-28T11:45:30.877Z,48.15
2017-07-28T11:46:30.874Z,46.44
2017-07-28T11:47:31.096Z,45.88
2017-07-28T11:48:31.123Z,49.88
2017-07-28T11:49:31.167Z,49.96
2017-07-28T11:50:31.089Z,47.43
2017-07-28T11:51:31.112Z,51.52
2017-07-28T11:52:31.146Z,49.71
2017-07-28T11:53:31.110Z,47.96
2017-07-28T11:54:31.163Z,50.14
2017-07-28T11:55:31.208Z,51.20
2017-07-28T11:56:30.944Z,45.80
2017-07-28T11:57:30.969Z,50.30
2017-07-28T11:58:30.910Z,50.51
2017-07-28T11:59:30.942Z,49.19
2017-07-28T12:00:30.982Z,50.25
2017-07-28T12:01:30.917Z,48.36
2017-07-28T12:02:30.962Z,48.11
2017-07-28T12:03:30.913Z,49.42
2017-07-28T12:04:31.175Z,49.03
2017-07-28T12:05:31.250Z,51.55
2017-07-28T12:06:31.307Z,51.44
2017-07-28T12:07:31.241Z,56.00
2017-07-28T12:08:31.213Z,51.96
2017-07-28T12:09:31.187Z,51.82
2017-07-28T12:10:31.177Z,49.13
2017-07-28T12:11:31.197Z,50.29
2017-07-28T12:12:31.299Z,51.82
2017-07-28T12:13:30.999Z,52.91
2017-07-28T12:14:30.996Z,50.75
2017-07-28T12:15:31.007Z,50.99
2017-07-28T12:16:31.054Z,50.73
2017-07-28T12:17:31.098Z,46.05
2017-07-28T12:18:30.946Z,49.61
2017-07-28T12:19:31.033Z,49.02
2017-07-28T12:20:30.969Z,52.20
2017-07-28T12:21:31.187Z,50.83
2017-07-28T12:22:31.387Z,48.96
2017-07-28T12:23:31.268Z,48.07
2017-07-28T12:24:31.243Z,49.71
2017-07-28T12:25:31.236Z,46.41
2017-07-28T12:26:31.234Z,47.39
2017-07-28T12:27:31.333Z,48.07
2017-07-28T12:28:31.237Z,47.58
2017-07-28T12:29:31.229Z,48.30
2017-07-28T12:30:31.064Z,51.82
2017-07-28T12:31:31.002Z,50.81
2017-07-28T12:32:31.058Z,51.58
2017-07-28T12:33:31.108Z,46.72
2017-07-28T12:34:31.059Z,51.04
2017-07-28T12:35:31.122Z,49.39
2017-07-28T12:36:31.090Z,52.40
2017-07-28T12:37:31.031Z,48.95
2017-07-28T12:38:31.045Z,46.72
2017-07-28T12:39:31.399Z,48.60
2017-07-28T12:40:31.270Z,47.36
2017-07-28T12:41:31.257Z,50.80
2017-07-28T12:42:31.387Z,50.86
2017-07-28T12:43:31.222Z,46.34
2017-07-28T12:44:31.213Z,47.08
2017-07-28T12:45:31.286Z,48.06
2017-07-28T12:46:31.281Z,50.20
2017-07-28T12:47:31.114Z,46.72
2017-07-28T12:48:31.061Z,49.00
2017-07-28T12:49:31.104Z,47.63
2017-07-28T12:50:31.048Z,50.72
2017-07-28T12:51:31.092Z,51.14
2017-07-28T12:52:31.044Z,51.69
2017-07-28T12:53:31.084Z,50.10
2017-07-28T12:54:31.323Z,49.16
2017-07-28T12:55:31.289Z,50.50
2017-07-28T12:56:31.404Z,53.07
2017-07-28T12:57:31.452Z,49.90
2017-07-28T12:58:31.302Z,52.69
2017-07-28T12:59:31.371Z,49.32
2017-07-28T13:00:31.444Z,49.01